createdAt,value
2023-05-09T00:00:05.958Z,17.0506
2023-05-09T00:01:07.357Z,17.0429
2023-05-09T00:02:09.073Z,17.0306
2023-05-09T00:03:10.713Z,17.0178
2023-05-09T00:04:12.348Z,17.0108
2023-05-09T00:05:14.219Z,16.9709
2023-05-09T00:06:15.672Z,16.9461
2023-05-09T00:07:17.241Z,16.9534
2023-05-09T00:08:18.902Z,16.9665
2023-05-09T00:09:20.596Z,16.9599
2023-05-09T00:10:22.193Z,16.9716
2023-05-09T00:11:23.833Z,16.9779
2023-05-09T00:12:25.435Z,16.9693
2023-05-09T00:13:27.121Z,16.9701
2023-05-09T00:14:28.742Z,16.9787
2023-05-09T00:15:30.464Z,16.9617
2023-05-09T00:16:32.046Z,16.9456
2023-05-09T00:17:33.723Z,16.9531
2023-05-09T00:18:35.292Z,16.9816
2023-05-09T00:19:36.928Z,16.9843
2023-05-09T00:20:38.611Z,17.0010
2023-05-09T00:21:40.237Z,16.9899
2023-05-09T00:22:41.886Z,16.9673
2023-05-09T00:23:43.534Z,16.9684
2023-05-09T00:24:45.093Z,16.9808
2023-05-09T00:25:46.792Z,16.9740
2023-05-09T00:26:48.434Z,16.9727
2023-05-09T00:27:50.062Z,16.9802
2023-05-09T00:28:51.656Z,16.9301
2023-05-09T00:29:53.321Z,16.8999
2023-05-09T00:30:55.431Z,16.8955
2023-05-09T00:31:56.638Z,16.9357
2023-05-09T00:32:58.291Z,16.9476
2023-05-09T00:33:59.913Z,16.9637
2023-05-09T00:35:02.638Z,16.9553
2023-05-09T00:36:03.448Z,16.9108
2023-05-09T00:37:04.908Z,16.8869
2023-05-09T00:38:06.582Z,16.8854
2023-05-09T00:39:08.187Z,16.8997
2023-05-09T00:40:09.870Z,16.9368
2023-05-09T00:41:11.595Z,16.9705
2023-05-09T00:42:13.172Z,16.9470
2023-05-09T00:43:14.959Z,16.9104
2023-05-09T00:44:16.546Z,16.8912
2023-05-09T00:45:18.143Z,16.8878
2023-05-09T00:46:19.697Z,16.8990
2023-05-09T00:47:21.337Z,16.9407
2023-05-09T00:48:22.970Z,16.9443
2023-05-09T00:49:24.563Z,16.8793
2023-05-09T00:50:26.247Z,16.8500
2023-05-09T00:51:27.981Z,16.8456
2023-05-09T00:52:29.542Z,16.8541
2023-05-09T00:53:32.047Z,16.8711
2023-05-09T00:54:32.799Z,16.9078
2023-05-09T00:55:34.402Z,16.8815
2023-05-09T00:56:36.070Z,16.8368
2023-05-09T00:57:37.788Z,16.7914
2023-05-09T00:58:39.370Z,16.7887
2023-05-09T00:59:41.009Z,16.7733
2023-05-09T01:00:42.653Z,16.8174
2023-05-09T01:01:44.317Z,16.8431
2023-05-09T01:02:46.181Z,16.8737
2023-05-09T01:03:47.726Z,16.8182
2023-05-09T01:04:49.195Z,16.7880
2023-05-09T01:05:51.191Z,16.7945
2023-05-09T01:06:52.482Z,16.7902
2023-05-09T01:07:54.229Z,16.8093
2023-05-09T01:08:55.739Z,16.8406
2023-05-09T01:09:57.361Z,16.8806
2023-05-09T01:11:00.107Z,16.9084
2023-05-09T01:12:00.629Z,16.8688
2023-05-09T01:13:02.282Z,16.8255
2023-05-09T01:14:03.908Z,16.8070
2023-05-09T01:15:05.485Z,16.7437
2023-05-09T01:16:07.207Z,16.7318
2023-05-09T01:17:08.782Z,16.7145
2023-05-09T01:18:10.559Z,16.7416
2023-05-09T01:19:12.093Z,16.7921
2023-05-09T01:20:13.724Z,16.8128
2023-05-09T01:21:15.311Z,16.7709
2023-05-09T01:22:17.070Z,16.7250
2023-05-09T01:23:18.663Z,16.6789
2023-05-09T01:24:20.309Z,16.5793
2023-05-09T01:25:21.880Z,16.5205
2023-05-09T01:26:23.558Z,16.5961
2023-05-09T01:27:25.179Z,16.6753
2023-05-09T01:28:27.113Z,16.7284
2023-05-09T01:29:28.425Z,16.7245
2023-05-09T01:30:30.111Z,16.6854
2023-05-09T01:31:31.768Z,16.6460
2023-05-09T01:32:33.456Z,16.5617
2023-05-09T01:33:35.003Z,16.4656
2023-05-09T01:34:36.667Z,16.4190
2023-05-09T01:35:38.304Z,16.5004
2023-05-09T01:36:39.960Z,16.5434
2023-05-09T01:37:41.606Z,16.5973
2023-05-09T01:38:43.253Z,16.6054
2023-05-09T01:39:44.821Z,16.5729
2023-05-09T01:40:46.526Z,16.5084
2023-05-09T01:41:48.095Z,16.3937
2023-05-09T01:42:49.819Z,16.3335
2023-05-09T01:43:51.482Z,16.4073
2023-05-09T01:44:53.074Z,16.5092
2023-05-09T01:45:54.731Z,16.5382
2023-05-09T01:46:56.400Z,16.5131
2023-05-09T01:47:58.007Z,16.4842
2023-05-09T01:48:59.661Z,16.4240
2023-05-09T01:50:01.256Z,16.3207
2023-05-09T01:51:02.916Z,16.2459
2023-05-09T01:52:04.558Z,16.2232
2023-05-09T01:53:06.207Z,16.2720
2023-05-09T01:54:07.902Z,16.3254
2023-05-09T01:55:09.522Z,16.3578
2023-05-09T01:56:11.135Z,16.3748
2023-05-09T01:57:12.732Z,16.3920
2023-05-09T01:58:14.413Z,16.3431
2023-05-09T01:59:16.160Z,16.2525
2023-05-09T02:00:18.136Z,16.1855
2023-05-09T02:01:19.307Z,16.1963
2023-05-09T02:02:20.949Z,16.2667
2023-05-09T02:03:22.658Z,16.3129
2023-05-09T02:04:24.604Z,16.3082
2023-05-09T02:05:25.884Z,16.3553
2023-05-09T02:06:27.453Z,16.3636
2023-05-09T02:07:29.131Z,16.2276
2023-05-09T02:08:30.838Z,16.1217
2023-05-09T02:09:32.458Z,16.0554
2023-05-09T02:10:34.084Z,16.0658
2023-05-09T02:11:35.678Z,16.1548
2023-05-09T02:12:37.319Z,16.2259
2023-05-09T02:13:38.909Z,16.2370
2023-05-09T02:14:40.613Z,16.2009
2023-05-09T02:15:42.180Z,16.1401
2023-05-09T02:16:43.971Z,16.0819
2023-05-09T02:17:45.470Z,16.0391
2023-05-09T02:18:47.121Z,16.0458
2023-05-09T02:19:48.822Z,16.1141
2023-05-09T02:20:50.489Z,16.1743
2023-05-09T02:21:52.064Z,16.1941
2023-05-09T02:22:53.709Z,16.2147
2023-05-09T02:23:55.252Z,16.1109
2023-05-09T02:24:57.000Z,16.0122
2023-05-09T02:25:58.655Z,15.9471
2023-05-09T02:27:00.222Z,15.9406
2023-05-09T02:28:01.879Z,15.9625
2023-05-09T02:29:03.470Z,16.0146
2023-05-09T02:30:05.124Z,16.0745
2023-05-09T02:31:06.809Z,16.0421
2023-05-09T02:32:08.449Z,15.9879
2023-05-09T02:33:10.046Z,15.9286
2023-05-09T02:34:11.639Z,15.8790
2023-05-09T02:35:13.620Z,15.8903
2023-05-09T02:36:14.947Z,15.9639
2023-05-09T02:37:16.601Z,16.0427
2023-05-09T02:38:18.199Z,16.0586
2023-05-09T02:39:19.909Z,16.0738
2023-05-09T02:40:21.620Z,16.0005
2023-05-09T02:41:23.180Z,15.9213
2023-05-09T02:42:24.783Z,15.8391
2023-05-09T02:43:26.449Z,15.8147
2023-05-09T02:44:28.035Z,15.8212
2023-05-09T02:45:29.784Z,15.8736
2023-05-09T02:46:31.443Z,15.9698
2023-05-09T02:47:33.052Z,15.9872
2023-05-09T02:48:34.638Z,15.9680
2023-05-09T02:49:36.307Z,15.9318
2023-05-09T02:50:38.023Z,15.8616
2023-05-09T02:51:40.112Z,15.8396
2023-05-09T02:52:41.296Z,15.8841
2023-05-09T02:53:42.845Z,16.0003
2023-05-09T02:54:44.470Z,16.2039
2023-05-09T02:55:46.170Z,16.5606
2023-05-09T02:56:48.088Z,16.9323
2023-05-09T02:57:53.993Z,17.2020
2023-05-09T02:58:51.104Z,17.4093
2023-05-09T02:59:52.704Z,17.7440
2023-05-09T03:00:54.407Z,18.1053
2023-05-09T03:01:56.070Z,18.2656
2023-05-09T03:02:57.724Z,18.2298
2023-05-09T03:03:59.277Z,18.1282
2023-05-09T03:05:00.906Z,18.0439
2023-05-09T03:06:02.581Z,17.9164
2023-05-09T03:07:05.098Z,17.7846
2023-05-09T03:08:05.912Z,17.6703
2023-05-09T03:09:07.504Z,17.6007
2023-05-09T03:10:09.089Z,17.5578
2023-05-09T03:11:10.812Z,17.5361
2023-05-09T03:12:12.416Z,17.5897
2023-05-09T03:13:14.126Z,17.6549
2023-05-09T03:14:15.656Z,17.7058
2023-05-09T03:15:17.349Z,17.7069
2023-05-09T03:16:18.911Z,17.6388
2023-05-09T03:17:21.608Z,17.5903
2023-05-09T03:18:22.228Z,17.6062
2023-05-09T03:19:23.934Z,17.6742
2023-05-09T03:20:25.484Z,17.7328
2023-05-09T03:21:27.189Z,17.7262
2023-05-09T03:22:28.822Z,17.6732
2023-05-09T03:23:30.432Z,17.6237
2023-05-09T03:24:32.098Z,17.6225
2023-05-09T03:25:33.784Z,17.6886
2023-05-09T03:26:35.380Z,17.7806
2023-05-09T03:27:37.079Z,17.8132
2023-05-09T03:28:38.605Z,17.7909
2023-05-09T03:29:40.283Z,17.7279
2023-05-09T03:30:41.907Z,17.6636
2023-05-09T03:31:43.630Z,17.6622
2023-05-09T03:32:45.285Z,17.7379
2023-05-09T03:33:46.859Z,17.7948
2023-05-09T03:34:48.532Z,17.8235
2023-05-09T03:35:50.110Z,17.8191
2023-05-09T03:36:51.793Z,17.7963
2023-05-09T03:37:53.447Z,17.7583
2023-05-09T03:38:55.034Z,17.7314
2023-05-09T03:39:56.695Z,17.7419
2023-05-09T03:40:59.237Z,17.7586
2023-05-09T03:41:59.997Z,17.7927
2023-05-09T03:43:01.637Z,17.7890
2023-05-09T03:44:03.367Z,17.7577
2023-05-09T03:45:04.839Z,17.7784
2023-05-09T03:46:06.505Z,17.8628
2023-05-09T03:47:08.143Z,17.9310
2023-05-09T03:48:30.826Z,17.9459
2023-05-09T03:49:11.447Z,17.9698
2023-05-09T03:50:13.080Z,17.9716
2023-05-09T03:51:14.698Z,17.9824
2023-05-09T03:52:16.578Z,18.0422
2023-05-09T03:53:18.000Z,18.0660
2023-05-09T03:54:19.702Z,18.0640
2023-05-09T03:55:21.368Z,17.9768
2023-05-09T03:56:22.963Z,17.9013
2023-05-09T03:57:25.116Z,17.8692
2023-05-09T03:58:26.207Z,17.8614
2023-05-09T03:59:28.593Z,17.8595
2023-05-09T04:00:29.567Z,17.8866
2023-05-09T04:01:31.154Z,17.8610
2023-05-09T04:02:32.989Z,17.8761
2023-05-09T04:03:34.481Z,17.9073
2023-05-09T04:04:36.034Z,17.9549
2023-05-09T04:05:37.699Z,17.9864
2023-05-09T04:06:39.372Z,17.9447
2023-05-09T04:07:41.101Z,17.9396
2023-05-09T04:08:42.763Z,17.9525
2023-05-09T04:09:44.337Z,17.9548
2023-05-09T04:10:45.996Z,17.9758
2023-05-09T04:11:47.649Z,18.0539
2023-05-09T04:12:49.372Z,18.0367
2023-05-09T04:13:50.920Z,17.9985
2023-05-09T04:14:52.581Z,17.9870
2023-05-09T04:15:54.206Z,18.0734
2023-05-09T04:16:55.934Z,18.0777
2023-05-09T04:17:57.560Z,18.1010
2023-05-09T04:18:59.224Z,18.0984
2023-05-09T04:20:00.742Z,18.1040
2023-05-09T04:21:02.429Z,18.0869
2023-05-09T04:22:04.018Z,18.0994
2023-05-09T04:23:05.864Z,18.0895
2023-05-09T04:24:07.398Z,18.1019
2023-05-09T04:25:09.002Z,18.0804
2023-05-09T04:26:10.694Z,18.0931
2023-05-09T04:27:12.297Z,18.1120
2023-05-09T04:28:13.970Z,18.0949
2023-05-09T04:29:15.545Z,18.0819
2023-05-09T04:30:17.190Z,18.1154
2023-05-09T04:31:18.907Z,18.1554
2023-05-09T04:32:20.550Z,18.1205
2023-05-09T04:33:22.180Z,18.1091
2023-05-09T04:34:23.758Z,18.1057
2023-05-09T04:35:25.409Z,18.1567
2023-05-09T04:36:27.062Z,18.1876
2023-05-09T04:37:28.686Z,18.2196
2023-05-09T04:38:30.404Z,18.1972
2023-05-09T04:39:31.937Z,18.1830
2023-05-09T04:40:33.715Z,18.1656
2023-05-09T04:41:35.270Z,18.1073
2023-05-09T04:42:36.976Z,18.0840
2023-05-09T04:43:38.586Z,18.0919
2023-05-09T04:44:40.294Z,18.1461
2023-05-09T04:45:41.914Z,18.1882
2023-05-09T04:46:43.644Z,18.2562
2023-05-09T04:47:45.129Z,18.2729
2023-05-09T04:48:47.206Z,18.3012
2023-05-09T04:49:48.381Z,18.2361
2023-05-09T04:50:50.054Z,18.2289
2023-05-09T04:51:51.713Z,18.2474
2023-05-09T04:52:53.321Z,18.3324
2023-05-09T04:53:55.070Z,18.5147
2023-05-09T04:54:57.105Z,18.7741
2023-05-09T04:55:58.232Z,19.0381
2023-05-09T04:57:09.819Z,19.3919
2023-05-09T04:58:01.580Z,19.7048
2023-05-09T04:59:04.211Z,19.9259
2023-05-09T05:00:04.873Z,20.0642
2023-05-09T05:01:06.544Z,20.3369
2023-05-09T05:02:08.179Z,20.6316
2023-05-09T05:03:09.744Z,20.8583
2023-05-09T05:04:11.445Z,20.8948
2023-05-09T05:05:13.038Z,21.0042
2023-05-09T05:06:14.655Z,21.2090
2023-05-09T05:07:16.343Z,21.3946
2023-05-09T05:08:17.927Z,21.4426
2023-05-09T05:09:19.585Z,21.5724
2023-05-09T05:10:21.200Z,21.6248
2023-05-09T05:11:22.923Z,21.6536
2023-05-09T05:12:24.565Z,21.8442
2023-05-09T05:13:26.184Z,21.9326
2023-05-09T05:14:27.831Z,22.0299
2023-05-09T05:15:29.569Z,22.1279
2023-05-09T05:16:31.102Z,22.1523
2023-05-09T05:17:32.710Z,22.2851
2023-05-09T05:18:34.431Z,22.4233
2023-05-09T05:19:36.048Z,22.3370
2023-05-09T05:20:38.631Z,22.4026
2023-05-09T05:21:39.323Z,22.3360
2023-05-09T05:22:40.851Z,22.3544
2023-05-09T05:23:42.460Z,22.5518
2023-05-09T05:24:44.147Z,22.5570
2023-05-09T05:25:45.789Z,22.3638
2023-05-09T05:26:47.409Z,22.4198
2023-05-09T05:27:49.024Z,22.5156
2023-05-09T05:28:50.774Z,22.6565
2023-05-09T05:29:52.371Z,22.7617
2023-05-09T05:30:54.001Z,22.6670
2023-05-09T05:31:55.776Z,22.6017
2023-05-09T05:32:57.314Z,22.7069
2023-05-09T05:33:59.935Z,22.7403
2023-05-09T05:35:01.799Z,22.8107
2023-05-09T05:36:02.352Z,22.8820
2023-05-09T05:37:03.948Z,22.6250
2023-05-09T05:38:05.622Z,22.6279
2023-05-09T05:39:07.221Z,22.6843
2023-05-09T05:40:08.869Z,22.7918
2023-05-09T05:41:10.594Z,22.9061
2023-05-09T05:42:12.092Z,22.6100
2023-05-09T05:43:13.806Z,22.3293
2023-05-09T05:44:15.505Z,22.4684
2023-05-09T05:45:17.303Z,22.6186
2023-05-09T05:46:18.828Z,22.8148
2023-05-09T05:47:20.353Z,23.0275
2023-05-09T05:48:21.960Z,22.8551
2023-05-09T05:49:23.615Z,22.8315
2023-05-09T05:50:25.253Z,22.8441
2023-05-09T05:51:26.989Z,22.9529
2023-05-09T05:52:28.529Z,23.1437
2023-05-09T05:53:32.086Z,23.0234
2023-05-09T05:54:31.800Z,22.8970
2023-05-09T05:55:33.519Z,22.9577
2023-05-09T05:56:35.126Z,23.0360
2023-05-09T05:57:36.825Z,23.1290
2023-05-09T05:58:38.361Z,22.9991
2023-05-09T05:59:40.060Z,22.6900
2023-05-09T06:00:41.731Z,22.7778
2023-05-09T06:01:43.440Z,22.9397
2023-05-09T06:02:45.112Z,23.1623
2023-05-09T06:03:46.730Z,23.2532
2023-05-09T06:04:48.260Z,23.0048
2023-05-09T06:05:49.887Z,23.0119
2023-05-09T06:06:52.201Z,23.0653
2023-05-09T06:07:53.201Z,23.2689
2023-05-09T06:08:54.823Z,23.3708
2023-05-09T06:09:56.480Z,23.0366
2023-05-09T06:10:58.145Z,22.9588
2023-05-09T06:11:59.761Z,22.8836
2023-05-09T06:13:01.441Z,22.9907
2023-05-09T06:14:02.973Z,23.1629
2023-05-09T06:15:04.682Z,23.3119
2023-05-09T06:16:18.454Z,23.2234
2023-05-09T06:17:08.124Z,23.2468
2023-05-09T06:18:09.625Z,23.2234
2023-05-09T06:19:11.313Z,23.3535
2023-05-09T06:20:12.987Z,23.4626
2023-05-09T06:21:14.589Z,23.3450
2023-05-09T06:22:16.224Z,23.1809
2023-05-09T06:23:17.860Z,23.2345
2023-05-09T06:24:27.967Z,23.3598
2023-05-09T06:25:21.158Z,23.5069
2023-05-09T06:26:22.761Z,23.4647
2023-05-09T06:27:24.389Z,23.1495
2023-05-09T06:28:26.086Z,23.1135
2023-05-09T06:29:27.597Z,23.2255
2023-05-09T06:30:29.324Z,23.3310
2023-05-09T06:31:31.067Z,23.4287
2023-05-09T06:32:32.637Z,23.4627
2023-05-09T06:33:34.188Z,23.6269
2023-05-09T06:34:35.864Z,23.6011
2023-05-09T06:35:37.521Z,23.6285
2023-05-09T06:36:39.228Z,23.7291
2023-05-09T06:37:40.802Z,23.8663
2023-05-09T06:38:42.399Z,23.8557
2023-05-09T06:39:44.104Z,23.7030
2023-05-09T06:40:45.752Z,23.5150
2023-05-09T06:41:47.414Z,23.5770
2023-05-09T06:42:49.065Z,23.6999
2023-05-09T06:43:50.518Z,23.8055
2023-05-09T06:44:53.203Z,23.5555
2023-05-09T06:45:53.811Z,23.3392
2023-05-09T06:46:55.473Z,23.3528
2023-05-09T06:47:57.135Z,23.4624
2023-05-09T06:48:58.687Z,23.5842
2023-05-09T06:50:00.405Z,23.4137
2023-05-09T06:51:02.030Z,23.0721
2023-05-09T06:52:03.695Z,23.0462
2023-05-09T06:53:05.302Z,23.1314
2023-05-09T06:54:07.024Z,23.1841
2023-05-09T06:55:11.168Z,23.2400
2023-05-09T06:56:10.187Z,23.3708
2023-05-09T06:57:12.103Z,23.4399
2023-05-09T06:58:13.618Z,23.3638
2023-05-09T06:59:15.134Z,23.4363
2023-05-09T07:00:16.822Z,23.5789
2023-05-09T07:01:18.643Z,23.7220
2023-05-09T07:02:20.175Z,23.9401
2023-05-09T07:03:21.896Z,24.1052
2023-05-09T07:04:23.500Z,24.1746
2023-05-09T07:05:26.220Z,24.0467
2023-05-09T07:06:26.761Z,24.0830
2023-05-09T07:07:28.426Z,24.1590
2023-05-09T07:08:30.090Z,24.1918
2023-05-09T07:09:32.377Z,24.2539
2023-05-09T07:10:33.322Z,24.3218
2023-05-09T07:11:34.911Z,24.3784
2023-05-09T07:12:36.665Z,24.4241
2023-05-09T07:13:38.288Z,24.3158
2023-05-09T07:14:39.836Z,23.9589
2023-05-09T07:15:42.885Z,23.9849
2023-05-09T07:16:43.325Z,24.1265
2023-05-09T07:17:44.881Z,24.1397
2023-05-09T07:18:46.483Z,24.1988
2023-05-09T07:19:48.089Z,24.0764
2023-05-09T07:20:49.726Z,23.9078
2023-05-09T07:21:51.387Z,23.9792
2023-05-09T07:22:53.974Z,24.1072
2023-05-09T07:23:54.703Z,24.1255
2023-05-09T07:24:56.266Z,24.1341
2023-05-09T07:25:57.981Z,24.1435
2023-05-09T07:26:59.637Z,24.0871
2023-05-09T07:28:01.309Z,24.1025
2023-05-09T07:29:02.886Z,24.1280
2023-05-09T07:30:04.498Z,24.1261
2023-05-09T07:31:06.142Z,24.1509
2023-05-09T07:32:08.034Z,24.1408
2023-05-09T07:33:09.431Z,24.1760
2023-05-09T07:34:11.059Z,24.2431
2023-05-09T07:35:13.024Z,24.3598
2023-05-09T07:36:14.427Z,24.3826
2023-05-09T07:37:16.929Z,24.2668
2023-05-09T07:38:17.731Z,24.2547
2023-05-09T07:39:20.222Z,24.2656
2023-05-09T07:40:21.930Z,24.2711
2023-05-09T07:41:22.489Z,24.2777
2023-05-09T07:42:24.140Z,24.1552
2023-05-09T07:43:25.844Z,24.1886
2023-05-09T07:44:27.519Z,24.3516
2023-05-09T07:45:29.145Z,24.5175
2023-05-09T07:46:30.818Z,24.5143
2023-05-09T07:47:32.381Z,24.3454
2023-05-09T07:48:34.005Z,24.4999
2023-05-09T07:49:35.610Z,24.4664
2023-05-09T07:50:37.384Z,24.5538
2023-05-09T07:51:38.902Z,24.5022
2023-05-09T07:52:40.585Z,24.4752
2023-05-09T07:53:42.137Z,24.3884
2023-05-09T07:54:43.930Z,24.2462
2023-05-09T07:55:45.555Z,24.0718
2023-05-09T07:56:47.437Z,23.8851
2023-05-09T07:57:48.725Z,23.7608
2023-05-09T07:58:52.152Z,23.5372
2023-05-09T07:59:52.031Z,23.3148
2023-05-09T08:00:53.615Z,23.3141
2023-05-09T08:01:55.349Z,23.2659
2023-05-09T08:02:57.912Z,23.2805
2023-05-09T08:03:59.401Z,23.1951
2023-05-09T08:05:00.232Z,23.1103
2023-05-09T08:06:02.241Z,22.9974
2023-05-09T08:07:03.462Z,22.9871
2023-05-09T08:08:05.162Z,22.9691
2023-05-09T08:09:06.815Z,23.0856
2023-05-09T08:10:08.517Z,23.2661
2023-05-09T08:11:10.149Z,23.1618
2023-05-09T08:12:11.724Z,22.7857
2023-05-09T08:13:13.445Z,22.7218
2023-05-09T08:14:15.734Z,22.7623
2023-05-09T08:15:17.093Z,22.8249
2023-05-09T08:16:18.386Z,22.9437
2023-05-09T08:17:19.991Z,22.7079
2023-05-09T08:18:21.630Z,22.5984
2023-05-09T08:19:23.781Z,22.6061
2023-05-09T08:20:25.295Z,22.6832
2023-05-09T08:21:26.521Z,22.8012
2023-05-09T08:22:28.200Z,22.9047
2023-05-09T08:23:29.798Z,22.7726
2023-05-09T08:24:31.582Z,22.6238
2023-05-09T08:25:33.078Z,22.5643
2023-05-09T08:26:34.818Z,22.6692
2023-05-09T08:27:36.409Z,22.8474
2023-05-09T08:28:38.007Z,22.9782
2023-05-09T08:29:39.700Z,22.8482
2023-05-09T08:30:41.356Z,22.6828
2023-05-09T08:31:42.907Z,22.4899
2023-05-09T08:32:44.649Z,22.4787
2023-05-09T08:33:46.238Z,22.5691
2023-05-09T08:34:47.910Z,22.6194
2023-05-09T08:35:49.520Z,22.3956
2023-05-09T08:36:51.241Z,22.2427
2023-05-09T08:37:52.785Z,22.2103
2023-05-09T08:38:54.472Z,22.2313
2023-05-09T08:39:56.064Z,22.3661
2023-05-09T08:40:57.768Z,22.3672
2023-05-09T08:41:59.362Z,22.1300
2023-05-09T08:43:00.986Z,22.0294
2023-05-09T08:44:02.635Z,22.0338
2023-05-09T08:45:04.285Z,22.1041
2023-05-09T08:46:05.918Z,22.2569
2023-05-09T08:47:07.565Z,22.2667
2023-05-09T08:48:09.218Z,22.0643
2023-05-09T08:49:10.880Z,21.9108
2023-05-09T08:50:12.616Z,21.9048
2023-05-09T08:51:14.104Z,21.9808
2023-05-09T08:52:15.683Z,22.0700
2023-05-09T08:53:17.407Z,22.1045
2023-05-09T08:54:20.676Z,22.0438
2023-05-09T08:55:20.790Z,21.8740
2023-05-09T08:56:22.369Z,21.7657
2023-05-09T08:57:24.068Z,21.8448
2023-05-09T08:58:25.554Z,21.9468
2023-05-09T08:59:27.298Z,22.0819
2023-05-09T09:00:28.863Z,22.0125
2023-05-09T09:01:30.482Z,21.9463
2023-05-09T09:02:32.136Z,21.8939
2023-05-09T09:03:33.723Z,21.9152
2023-05-09T09:04:35.433Z,22.0733
2023-05-09T09:05:41.758Z,22.2497
2023-05-09T09:06:38.670Z,22.0887
2023-05-09T09:07:40.346Z,21.9472
2023-05-09T09:08:41.966Z,21.8991
2023-05-09T09:09:43.638Z,21.9655
2023-05-09T09:10:45.276Z,22.1512
2023-05-09T09:11:46.816Z,22.3187
2023-05-09T09:12:50.152Z,22.1570
2023-05-09T09:13:50.185Z,21.9924
2023-05-09T09:14:51.804Z,21.9003
2023-05-09T09:15:53.454Z,21.9445
2023-05-09T09:16:55.163Z,22.1383
2023-05-09T09:17:56.773Z,22.3292
2023-05-09T09:18:59.035Z,22.1903
2023-05-09T09:20:00.021Z,22.0889
2023-05-09T09:21:01.678Z,22.1028
2023-05-09T09:22:03.359Z,22.1087
2023-05-09T09:23:04.903Z,22.2273
2023-05-09T09:24:06.543Z,22.4045
2023-05-09T09:25:08.229Z,22.2951
2023-05-09T09:26:09.862Z,22.1737
2023-05-09T09:27:11.479Z,22.0891
2023-05-09T09:28:13.033Z,22.1126
2023-05-09T09:29:14.734Z,22.2744
2023-05-09T09:30:16.530Z,22.4236
2023-05-09T09:31:18.845Z,22.3300
2023-05-09T09:32:20.369Z,22.2000
2023-05-09T09:33:21.290Z,22.0515
2023-05-09T09:34:22.946Z,22.0420
2023-05-09T09:35:24.573Z,22.2534
2023-05-09T09:36:26.280Z,22.4502
2023-05-09T09:37:27.894Z,22.4091
2023-05-09T09:38:29.480Z,22.2981
2023-05-09T09:39:31.155Z,22.2275
2023-05-09T09:40:32.759Z,22.2310
2023-05-09T09:41:34.462Z,22.3075
2023-05-09T09:42:36.765Z,22.5046
2023-05-09T09:43:37.746Z,22.4112
2023-05-09T09:44:39.366Z,22.2553
2023-05-09T09:45:41.095Z,22.2050
2023-05-09T09:46:42.626Z,22.2094
2023-05-09T09:47:44.292Z,22.3694
2023-05-09T09:48:45.917Z,22.5950
2023-05-09T09:49:47.537Z,22.5370
2023-05-09T09:50:49.065Z,22.4750
2023-05-09T09:51:50.790Z,22.4309
2023-05-09T09:52:52.365Z,22.3675
2023-05-09T09:53:54.849Z,22.4616
2023-05-09T09:54:55.700Z,22.6331
2023-05-09T09:55:57.399Z,22.4832
2023-05-09T09:56:58.948Z,22.3140
2023-05-09T09:58:00.580Z,22.2847
2023-05-09T09:59:02.185Z,22.2854
2023-05-09T10:00:03.889Z,22.3892
2023-05-09T10:01:06.371Z,22.5492
2023-05-09T10:02:08.259Z,22.4387
2023-05-09T10:03:08.848Z,22.3685
2023-05-09T10:04:10.643Z,22.2635
2023-05-09T10:05:12.275Z,22.2857
2023-05-09T10:06:13.866Z,22.4201
2023-05-09T10:07:18.987Z,22.5715
2023-05-09T10:08:21.905Z,22.4858
2023-05-09T10:09:23.529Z,22.4616
2023-05-09T10:10:26.159Z,22.4604
2023-05-09T10:11:26.755Z,22.5238
2023-05-09T10:12:28.934Z,22.6802
2023-05-09T10:13:30.260Z,22.7721
2023-05-09T10:14:33.510Z,22.5922
2023-05-09T10:15:41.403Z,22.5929
2023-05-09T10:16:43.597Z,22.6018
2023-05-09T10:17:36.823Z,22.6126
2023-05-09T10:18:38.452Z,22.7296
2023-05-09T10:19:39.900Z,22.8383
2023-05-09T10:20:41.579Z,22.6980
2023-05-09T10:21:43.267Z,22.5880
2023-05-09T10:22:44.890Z,22.4610
2023-05-09T10:23:46.448Z,22.5179
2023-05-09T10:24:48.082Z,22.7140
2023-05-09T10:25:50.462Z,22.8343
2023-05-09T10:26:51.371Z,22.7797
2023-05-09T10:27:53.111Z,22.7535
2023-05-09T10:28:54.701Z,22.6814
2023-05-09T10:29:56.960Z,22.6084
2023-05-09T10:30:58.973Z,22.7275
2023-05-09T10:31:59.549Z,22.7975
2023-05-09T10:33:01.312Z,22.7055
2023-05-09T10:34:02.936Z,22.7232
2023-05-09T10:35:05.470Z,22.6716
2023-05-09T10:36:06.270Z,22.7016
2023-05-09T10:37:07.819Z,22.9078
2023-05-09T10:38:09.462Z,23.0211
2023-05-09T10:39:11.093Z,22.9534
2023-05-09T10:40:12.793Z,22.9502
2023-05-09T10:41:14.398Z,22.8876
2023-05-09T10:42:16.068Z,22.8813
2023-05-09T10:43:17.743Z,23.1064
2023-05-09T10:44:19.342Z,23.1971
2023-05-09T10:45:20.924Z,23.1205
2023-05-09T10:46:22.607Z,23.1491
2023-05-09T10:47:24.251Z,23.1336
2023-05-09T10:48:25.848Z,23.1601
2023-05-09T10:49:27.557Z,23.3106
2023-05-09T10:50:30.084Z,23.3836
2023-05-09T10:51:30.874Z,23.3327
2023-05-09T10:52:32.478Z,23.3185
2023-05-09T10:53:35.416Z,23.1528
2023-05-09T10:54:35.695Z,23.1865
2023-05-09T10:55:37.336Z,23.4290
2023-05-09T10:56:38.967Z,23.4708
2023-05-09T10:57:40.949Z,23.4433
2023-05-09T10:58:42.309Z,23.3858
2023-05-09T10:59:43.902Z,23.1704
2023-05-09T11:00:45.548Z,23.2083
2023-05-09T11:01:48.331Z,23.4176
2023-05-09T11:02:48.778Z,23.5031
2023-05-09T11:03:51.126Z,23.4154
2023-05-09T11:04:52.085Z,23.4014
2023-05-09T11:05:53.695Z,23.3747
2023-05-09T11:06:57.144Z,23.4152
2023-05-09T11:07:57.050Z,23.6476
2023-05-09T11:08:58.659Z,23.6762
2023-05-09T11:10:00.317Z,23.5231
2023-05-09T11:11:01.914Z,23.3891
2023-05-09T11:12:03.608Z,23.2805
2023-05-09T11:13:05.220Z,23.2837
2023-05-09T11:14:06.844Z,23.5097
2023-05-09T11:15:08.499Z,23.6574
2023-05-09T11:16:10.129Z,23.4311
2023-05-09T11:17:11.791Z,23.4275
2023-05-09T11:18:13.419Z,23.4740
2023-05-09T11:19:15.134Z,23.5108
2023-05-09T11:20:16.832Z,23.6241
2023-05-09T11:21:18.312Z,23.6858
2023-05-09T11:22:19.993Z,23.3112
2023-05-09T11:23:21.630Z,23.2450
2023-05-09T11:24:23.309Z,23.2871
2023-05-09T11:25:24.886Z,23.3083
2023-05-09T11:26:26.484Z,23.4608
2023-05-09T11:27:28.402Z,23.6592
2023-05-09T11:28:29.816Z,23.6211
2023-05-09T11:29:32.381Z,23.4724
2023-05-09T11:30:33.143Z,23.4874
2023-05-09T11:31:34.732Z,23.4317
2023-05-09T11:32:36.397Z,23.4513
2023-05-09T11:33:38.085Z,23.6675
2023-05-09T11:34:39.769Z,23.5440
2023-05-09T11:35:41.283Z,23.4167
2023-05-09T11:36:43.084Z,23.4825
2023-05-09T11:37:44.709Z,23.4853
2023-05-09T11:38:46.245Z,23.4781
2023-05-09T11:39:48.365Z,23.6656
2023-05-09T11:40:49.594Z,23.6492
2023-05-09T11:41:51.224Z,23.5239
2023-05-09T11:42:54.068Z,23.5381
2023-05-09T11:43:54.490Z,23.4885
2023-05-09T11:44:56.163Z,23.4574
2023-05-09T11:45:57.769Z,23.6136
2023-05-09T11:46:59.368Z,23.6990
2023-05-09T11:48:01.364Z,23.5448
2023-05-09T11:49:02.641Z,23.5177
2023-05-09T11:50:04.351Z,23.4267
2023-05-09T11:51:07.850Z,23.3825
2023-05-09T11:52:07.598Z,23.5606
2023-05-09T11:53:09.326Z,23.6186
2023-05-09T11:54:10.921Z,23.4754
2023-05-09T11:55:12.901Z,23.4828
2023-05-09T11:56:14.171Z,23.4485
2023-05-09T11:57:15.872Z,23.4261
2023-05-09T11:58:17.373Z,23.5823
2023-05-09T11:59:19.126Z,23.8082
2023-05-09T12:00:20.791Z,23.6639
2023-05-09T12:01:22.417Z,23.5405
2023-05-09T12:02:24.796Z,23.5534
2023-05-09T12:03:25.959Z,23.5926
2023-05-09T12:04:27.339Z,23.6181
2023-05-09T12:05:28.980Z,23.6993
2023-05-09T12:06:30.565Z,23.7194
2023-05-09T12:07:32.212Z,23.5765
2023-05-09T12:08:33.816Z,23.5828
2023-05-09T12:09:35.509Z,23.6068
2023-05-09T12:10:37.118Z,23.5622
2023-05-09T12:11:38.916Z,23.6485
2023-05-09T12:12:40.507Z,23.7483
2023-05-09T12:13:42.096Z,23.4844
2023-05-09T12:14:43.755Z,23.4189
2023-05-09T12:15:45.963Z,23.4909
2023-05-09T12:16:47.106Z,23.5039
2023-05-09T12:17:51.848Z,23.6041
2023-05-09T12:18:50.359Z,23.7965
2023-05-09T12:19:51.974Z,23.8498
2023-05-09T12:20:53.650Z,23.7231
2023-05-09T12:21:55.301Z,23.6225
2023-05-09T12:22:56.934Z,23.4358
2023-05-09T12:23:58.808Z,23.4626
2023-05-09T12:25:00.160Z,23.6633